Аэропорт: Уйташ. Махачкала

ICAO: URML

METAR:
2019-07-23 18:30:00
URML 231830Z 25002MPS 9999 SCT093CB 25/19 Q1010 R32/01//70 NOSIG RMK QFE757/1009
METAR:
2019-07-23 17:00:00
TAF URML 231700Z 2318/2403 33003G10MPS 9999 SCT040CB TEMPO 2318/2324 VRB07G14MPS -TSRA BKN030CB